CGF26 KSAN-KLAS
Flight info
| Callsign | CGF26 |
|---|---|
| Flight time | 1h 7m |
| Altitude | 29000 |
| Route | PADRZ2 CHKNN SEBBY YELAH MISEN RNDRZ3 |
| Aircraft | B738/M-SDE2E3FGHIRWXY/LB1 |
Departure
| Time | 2026-05-06 23:46 |
|---|---|
| Airport | San Diego International Airport (KSAN) |
Arrival
| Time | 2026-05-07 00:54 |
|---|---|
| Airport | Harry Reid International Airport (KLAS) |
| Time | Latitude | Longitude | Altitude | Speed | Heading |
|---|---|---|---|---|---|
| 2026-05-06 23:27 | 32.73752 | -117.18711 | 36 ft | 0 kts | 236° |
| 2026-05-06 23:35 | 32.73759 | -117.18701 | 18 ft | 2 kts | 220° |
| 2026-05-06 23:35 | 32.73773 | -117.18691 | 22 ft | 2 kts | 192° |
| 2026-05-06 23:35 | 32.73789 | -117.18691 | 22 ft | 2 kts | 163° |
| 2026-05-06 23:35 | 32.73804 | -117.18698 | 20 ft | 2 kts | 149° |
| 2026-05-06 23:36 | 32.73812 | -117.18704 | 20 ft | 0 kts | 146° |
| 2026-05-06 23:37 | 32.73791 | -117.18687 | 21 ft | 9 kts | 145° |
| 2026-05-06 23:37 | 32.73740 | -117.18644 | 19 ft | 9 kts | 144° |
| 2026-05-06 23:38 | 32.73688 | -117.18601 | 22 ft | 9 kts | 144° |
| 2026-05-06 23:38 | 32.73631 | -117.18553 | 18 ft | 11 kts | 144° |
| 2026-05-06 23:38 | 32.73564 | -117.18495 | 18 ft | 13 kts | 143° |
| 2026-05-06 23:38 | 32.73495 | -117.18435 | 20 ft | 12 kts | 143° |
| 2026-05-06 23:39 | 32.73421 | -117.18388 | 21 ft | 12 kts | 174° |
| 2026-05-06 23:39 | 32.73341 | -117.18385 | 21 ft | 12 kts | 140° |
| 2026-05-06 23:39 | 32.73307 | -117.18284 | 19 ft | 14 kts | 105° |
| 2026-05-06 23:39 | 32.73276 | -117.18156 | 19 ft | 21 kts | 105° |
| 2026-05-06 23:40 | 32.73240 | -117.18011 | 19 ft | 15 kts | 106° |
| 2026-05-06 23:40 | 32.73210 | -117.17893 | 19 ft | 17 kts | 107° |
| 2026-05-06 23:40 | 32.73173 | -117.17745 | 23 ft | 19 kts | 106° |
| 2026-05-06 23:40 | 32.73136 | -117.17600 | 19 ft | 18 kts | 115° |
| 2026-05-06 23:41 | 32.73098 | -117.17555 | 18 ft | 4 kts | 144° |
| 2026-05-06 23:41 | 32.73094 | -117.17551 | 19 ft | 0 kts | 144° |
| 2026-05-06 23:45 | 32.73072 | -117.17535 | 23 ft | 14 kts | 151° |
| 2026-05-06 23:45 | 32.73018 | -117.17567 | 20 ft | 9 kts | 269° |
| 2026-05-06 23:45 | 32.73023 | -117.17595 | 19 ft | 2 kts | 287° |
| 2026-05-06 23:45 | 32.73030 | -117.17622 | 18 ft | 7 kts | 286° |
| 2026-05-06 23:46 | 32.73109 | -117.17946 | 16 ft | 82 kts | 286° |
| 2026-05-06 23:46 | 32.73337 | -117.18888 | 26 ft | 153 kts | 287° |
| 2026-05-06 23:46 | 32.73718 | -117.20306 | 230 ft | 195 kts | 291° |
| 2026-05-06 23:46 | 32.74404 | -117.21669 | 1232 ft | 190 kts | 305° |
| 2026-05-06 23:47 | 32.75168 | -117.22936 | 2250 ft | 194 kts | 306° |
| 2026-05-06 23:47 | 32.75952 | -117.24179 | 3039 ft | 179 kts | 309° |
| 2026-05-06 23:47 | 32.76566 | -117.25431 | 3341 ft | 180 kts | 295° |
| 2026-05-06 23:47 | 32.77182 | -117.26826 | 3594 ft | 206 kts | 303° |
| 2026-05-06 23:48 | 32.77993 | -117.28344 | 3777 ft | 229 kts | 304° |
| 2026-05-06 23:48 | 32.78919 | -117.30006 | 3969 ft | 252 kts | 304° |
| 2026-05-06 23:48 | 32.79925 | -117.31788 | 4351 ft | 266 kts | 306° |
| 2026-05-06 23:48 | 32.81036 | -117.33593 | 4978 ft | 273 kts | 309° |
| 2026-05-06 23:49 | 32.82190 | -117.35367 | 5883 ft | 271 kts | 309° |
| 2026-05-06 23:49 | 32.83354 | -117.37145 | 6628 ft | 275 kts | 310° |
| 2026-05-06 23:49 | 32.84534 | -117.38952 | 7343 ft | 278 kts | 310° |
| 2026-05-06 23:49 | 32.85720 | -117.40779 | 7813 ft | 280 kts | 310° |
| 2026-05-06 23:50 | 32.86912 | -117.42620 | 7995 ft | 280 kts | 310° |
| 2026-05-06 23:50 | 32.89296 | -117.46318 | 8003 ft | 282 kts | 310° |
| 2026-05-06 23:50 | 32.90498 | -117.48186 | 8193 ft | 284 kts | 310° |
| 2026-05-06 23:51 | 32.91704 | -117.50061 | 8952 ft | 284 kts | 310° |
| 2026-05-06 23:51 | 32.92888 | -117.51904 | 9765 ft | 284 kts | 310° |
| 2026-05-06 23:51 | 32.94098 | -117.53786 | 10438 ft | 288 kts | 311° |
| 2026-05-06 23:51 | 32.95326 | -117.55699 | 11052 ft | 293 kts | 311° |
| 2026-05-06 23:52 | 32.96572 | -117.57641 | 11692 ft | 297 kts | 310° |
| 2026-05-06 23:52 | 32.97832 | -117.59605 | 12343 ft | 300 kts | 310° |
| 2026-05-06 23:52 | 32.99108 | -117.61598 | 12997 ft | 304 kts | 310° |
| 2026-05-06 23:52 | 33.00397 | -117.63612 | 13655 ft | 308 kts | 311° |
| 2026-05-06 23:53 | 33.01707 | -117.65659 | 14201 ft | 313 kts | 311° |
| 2026-05-06 23:53 | 33.03034 | -117.67733 | 14804 ft | 316 kts | 311° |
| 2026-05-06 23:53 | 33.04363 | -117.69814 | 15443 ft | 317 kts | 311° |
| 2026-05-06 23:53 | 33.05705 | -117.71914 | 16051 ft | 319 kts | 311° |
| 2026-05-06 23:54 | 33.07147 | -117.73921 | 16634 ft | 318 kts | 321° |
| 2026-05-06 23:54 | 33.08813 | -117.75655 | 17246 ft | 318 kts | 325° |
| 2026-05-06 23:54 | 33.10538 | -117.77326 | 17846 ft | 321 kts | 326° |
| 2026-05-06 23:54 | 33.12275 | -117.79011 | 18435 ft | 323 kts | 325° |
| 2026-05-06 23:55 | 33.14018 | -117.80737 | 18957 ft | 326 kts | 325° |
| 2026-05-06 23:55 | 33.15756 | -117.82489 | 19487 ft | 328 kts | 324° |
| 2026-05-06 23:55 | 33.17495 | -117.84256 | 20025 ft | 330 kts | 324° |
| 2026-05-06 23:55 | 33.19222 | -117.86016 | 20525 ft | 332 kts | 324° |
| 2026-05-06 23:56 | 33.21001 | -117.87792 | 21016 ft | 334 kts | 325° |
| 2026-05-06 23:56 | 33.22829 | -117.89574 | 21526 ft | 336 kts | 326° |
| 2026-05-06 23:56 | 33.24648 | -117.91339 | 22032 ft | 338 kts | 326° |
| 2026-05-06 23:56 | 33.26461 | -117.93098 | 22526 ft | 340 kts | 326° |
| 2026-05-06 23:57 | 33.28302 | -117.94887 | 22999 ft | 343 kts | 326° |
| 2026-05-06 23:57 | 33.30161 | -117.96699 | 23508 ft | 345 kts | 325° |
| 2026-05-06 23:57 | 33.32028 | -117.98521 | 23924 ft | 348 kts | 326° |
| 2026-05-06 23:57 | 33.33905 | -118.00354 | 24311 ft | 350 kts | 326° |
| 2026-05-06 23:58 | 33.35181 | -118.01603 | 24581 ft | 351 kts | 326° |
| 2026-05-06 23:58 | 33.37056 | -118.03438 | 24968 ft | 354 kts | 326° |
| 2026-05-06 23:58 | 33.38963 | -118.05306 | 25327 ft | 356 kts | 326° |
| 2026-05-06 23:58 | 33.40890 | -118.07194 | 25690 ft | 359 kts | 326° |
| 2026-05-06 23:59 | 33.42829 | -118.09097 | 26045 ft | 362 kts | 326° |
| 2026-05-06 23:59 | 33.44804 | -118.11032 | 26063 ft | 371 kts | 326° |
| 2026-05-06 23:59 | 33.46796 | -118.12989 | 26092 ft | 370 kts | 326° |
| 2026-05-06 23:59 | 33.48788 | -118.14949 | 26091 ft | 371 kts | 326° |
| 2026-05-07 00:00 | 33.50782 | -118.16911 | 26095 ft | 370 kts | 326° |
| 2026-05-07 00:00 | 33.52771 | -118.18869 | 26097 ft | 371 kts | 326° |
| 2026-05-07 00:00 | 33.54793 | -118.20856 | 26115 ft | 382 kts | 326° |
| 2026-05-07 00:00 | 33.56883 | -118.22906 | 26117 ft | 394 kts | 326° |
| 2026-05-07 00:01 | 33.59188 | -118.24702 | 26093 ft | 396 kts | 339° |
| 2026-05-07 00:01 | 33.61701 | -118.26031 | 26088 ft | 394 kts | 341° |
| 2026-05-07 00:01 | 33.64214 | -118.27322 | 26086 ft | 391 kts | 340° |
| 2026-05-07 00:01 | 33.66698 | -118.28651 | 26078 ft | 390 kts | 340° |
| 2026-05-07 00:02 | 33.69160 | -118.30005 | 26074 ft | 389 kts | 340° |
| 2026-05-07 00:02 | 33.71701 | -118.30968 | 26064 ft | 379 kts | 358° |
| 2026-05-07 00:02 | 33.74291 | -118.30852 | 26085 ft | 371 kts | 14° |
| 2026-05-07 00:02 | 33.76722 | -118.29845 | 26100 ft | 374 kts | 27° |
| 2026-05-07 00:03 | 33.78925 | -118.28140 | 26082 ft | 381 kts | 41° |
| 2026-05-07 00:03 | 33.80692 | -118.25753 | 26096 ft | 383 kts | 51° |
| 2026-05-07 00:03 | 33.82259 | -118.23168 | 26052 ft | 383 kts | 53° |
| 2026-05-07 00:03 | 33.83784 | -118.20542 | 26053 ft | 382 kts | 53° |
| 2026-05-07 00:04 | 33.85299 | -118.17913 | 26052 ft | 382 kts | 53° |
| 2026-05-07 00:04 | 33.86821 | -118.15290 | 26045 ft | 382 kts | 53° |
| 2026-05-07 00:04 | 33.88351 | -118.12675 | 26050 ft | 381 kts | 53° |
| 2026-05-07 00:04 | 33.89884 | -118.10071 | 26044 ft | 381 kts | 53° |
| 2026-05-07 00:05 | 33.91421 | -118.07471 | 26046 ft | 381 kts | 53° |
| 2026-05-07 00:05 | 33.92958 | -118.04874 | 26043 ft | 381 kts | 53° |
| 2026-05-07 00:05 | 33.94413 | -118.02418 | 26045 ft | 381 kts | 53° |
| 2026-05-07 00:05 | 33.95951 | -117.99822 | 26049 ft | 381 kts | 53° |
| 2026-05-07 00:06 | 33.97495 | -117.97212 | 26047 ft | 382 kts | 53° |
| 2026-05-07 00:06 | 33.99038 | -117.94602 | 26067 ft | 383 kts | 53° |
| 2026-05-07 00:06 | 34.00581 | -117.91989 | 26069 ft | 384 kts | 53° |
| 2026-05-07 00:06 | 34.02132 | -117.89363 | 26057 ft | 385 kts | 53° |
| 2026-05-07 00:07 | 34.03684 | -117.86730 | 26068 ft | 384 kts | 53° |
| 2026-05-07 00:07 | 34.05233 | -117.84103 | 26063 ft | 384 kts | 53° |
| 2026-05-07 00:07 | 34.06781 | -117.81474 | 26061 ft | 384 kts | 53° |
| 2026-05-07 00:07 | 34.08324 | -117.78853 | 26067 ft | 383 kts | 53° |
| 2026-05-07 00:08 | 34.09908 | -117.76278 | 26061 ft | 382 kts | 50° |
| 2026-05-07 00:08 | 34.11579 | -117.73781 | 26049 ft | 382 kts | 49° |
| 2026-05-07 00:08 | 34.13279 | -117.71322 | 26057 ft | 381 kts | 49° |
| 2026-05-07 00:08 | 34.14984 | -117.68872 | 26054 ft | 381 kts | 49° |
| 2026-05-07 00:09 | 34.16684 | -117.66423 | 26045 ft | 381 kts | 49° |
| 2026-05-07 00:09 | 34.18382 | -117.63970 | 26060 ft | 379 kts | 49° |
| 2026-05-07 00:09 | 34.20071 | -117.61515 | 26054 ft | 380 kts | 49° |
| 2026-05-07 00:09 | 34.21759 | -117.59052 | 26051 ft | 382 kts | 49° |
| 2026-05-07 00:10 | 34.23450 | -117.56579 | 26054 ft | 382 kts | 49° |
| 2026-05-07 00:10 | 34.25140 | -117.54096 | 26056 ft | 384 kts | 49° |
| 2026-05-07 00:10 | 34.26843 | -117.51595 | 26047 ft | 385 kts | 49° |
| 2026-05-07 00:10 | 34.28525 | -117.49121 | 26043 ft | 386 kts | 49° |
| 2026-05-07 00:11 | 34.30228 | -117.46615 | 26054 ft | 385 kts | 49° |
| 2026-05-07 00:11 | 34.31920 | -117.44125 | 26036 ft | 381 kts | 49° |
| 2026-05-07 00:11 | 34.33593 | -117.41660 | 26035 ft | 377 kts | 49° |
| 2026-05-07 00:11 | 34.35260 | -117.39203 | 26043 ft | 379 kts | 49° |
| 2026-05-07 00:12 | 34.36944 | -117.36722 | 26045 ft | 382 kts | 49° |
| 2026-05-07 00:12 | 34.38629 | -117.34235 | 26035 ft | 383 kts | 49° |
| 2026-05-07 00:12 | 34.40323 | -117.31734 | 26024 ft | 385 kts | 49° |
| 2026-05-07 00:12 | 34.42020 | -117.29226 | 26017 ft | 385 kts | 49° |
| 2026-05-07 00:13 | 34.43717 | -117.26717 | 26010 ft | 384 kts | 49° |
| 2026-05-07 00:13 | 34.45406 | -117.24217 | 26053 ft | 383 kts | 49° |
| 2026-05-07 00:13 | 34.47093 | -117.21718 | 26046 ft | 382 kts | 49° |
| 2026-05-07 00:13 | 34.48771 | -117.19231 | 26052 ft | 381 kts | 49° |
| 2026-05-07 00:14 | 34.50451 | -117.16740 | 26027 ft | 379 kts | 49° |
| 2026-05-07 00:14 | 34.52119 | -117.14264 | 26017 ft | 379 kts | 49° |
| 2026-05-07 00:14 | 34.53784 | -117.11791 | 26012 ft | 378 kts | 49° |
| 2026-05-07 00:14 | 34.55443 | -117.09326 | 25986 ft | 377 kts | 49° |
| 2026-05-07 00:15 | 34.57098 | -117.06864 | 25995 ft | 377 kts | 50° |
| 2026-05-07 00:15 | 34.58757 | -117.04396 | 25993 ft | 376 kts | 49° |
| 2026-05-07 00:15 | 34.60396 | -117.01953 | 26001 ft | 377 kts | 50° |
| 2026-05-07 00:15 | 34.62056 | -116.99480 | 26005 ft | 378 kts | 50° |
| 2026-05-07 00:16 | 34.63720 | -116.97000 | 25994 ft | 379 kts | 50° |
| 2026-05-07 00:16 | 34.65387 | -116.94511 | 25999 ft | 380 kts | 50° |
| 2026-05-07 00:16 | 34.67055 | -116.92019 | 26005 ft | 381 kts | 50° |
| 2026-05-07 00:16 | 34.68728 | -116.89519 | 26009 ft | 381 kts | 50° |
| 2026-05-07 00:17 | 34.70406 | -116.87010 | 26004 ft | 382 kts | 50° |
| 2026-05-07 00:17 | 34.72083 | -116.84500 | 26004 ft | 383 kts | 50° |
| 2026-05-07 00:17 | 34.73763 | -116.81985 | 26007 ft | 383 kts | 50° |
| 2026-05-07 00:17 | 34.75441 | -116.79468 | 26006 ft | 383 kts | 50° |
| 2026-05-07 00:18 | 34.77116 | -116.76955 | 26011 ft | 383 kts | 50° |
| 2026-05-07 00:18 | 34.78791 | -116.74441 | 26009 ft | 382 kts | 50° |
| 2026-05-07 00:18 | 34.80462 | -116.71931 | 26014 ft | 382 kts | 50° |
| 2026-05-07 00:18 | 34.82135 | -116.69416 | 26002 ft | 382 kts | 50° |
| 2026-05-07 00:19 | 34.83803 | -116.66908 | 26003 ft | 381 kts | 50° |
| 2026-05-07 00:19 | 34.85529 | -116.64458 | 25998 ft | 380 kts | 44° |
| 2026-05-07 00:19 | 34.87518 | -116.62348 | 26006 ft | 378 kts | 38° |
| 2026-05-07 00:19 | 34.89587 | -116.60370 | 25989 ft | 378 kts | 38° |
| 2026-05-07 00:20 | 34.91660 | -116.58393 | 25991 ft | 378 kts | 38° |
| 2026-05-07 00:20 | 34.93728 | -116.56411 | 25999 ft | 378 kts | 38° |
| 2026-05-07 00:20 | 34.95795 | -116.54418 | 25995 ft | 379 kts | 38° |
| 2026-05-07 00:20 | 34.97857 | -116.52422 | 25986 ft | 379 kts | 38° |
| 2026-05-07 00:21 | 34.99922 | -116.50416 | 25980 ft | 380 kts | 38° |
| 2026-05-07 00:21 | 35.01990 | -116.48403 | 25971 ft | 381 kts | 38° |
| 2026-05-07 00:21 | 35.04061 | -116.46387 | 25967 ft | 381 kts | 38° |
| 2026-05-07 00:21 | 35.06109 | -116.44392 | 25960 ft | 381 kts | 38° |
| 2026-05-07 00:22 | 35.08181 | -116.42372 | 25955 ft | 382 kts | 38° |
| 2026-05-07 00:22 | 35.10260 | -116.40335 | 25954 ft | 382 kts | 40° |
| 2026-05-07 00:22 | 35.12182 | -116.38104 | 25964 ft | 382 kts | 45° |
| 2026-05-07 00:22 | 35.13981 | -116.35737 | 25890 ft | 375 kts | 47° |
| 2026-05-07 00:23 | 35.15687 | -116.33435 | 25785 ft | 356 kts | 46° |
| 2026-05-07 00:23 | 35.17320 | -116.31255 | 25677 ft | 339 kts | 46° |
| 2026-05-07 00:23 | 35.18885 | -116.29203 | 25568 ft | 321 kts | 46° |
| 2026-05-07 00:23 | 35.20384 | -116.27258 | 25406 ft | 308 kts | 45° |
| 2026-05-07 00:24 | 35.21844 | -116.25373 | 25010 ft | 303 kts | 45° |
| 2026-05-07 00:24 | 35.23284 | -116.23489 | 24492 ft | 303 kts | 46° |
| 2026-05-07 00:24 | 35.24674 | -116.21596 | 24009 ft | 302 kts | 47° |
| 2026-05-07 00:24 | 35.26064 | -116.19679 | 23559 ft | 300 kts | 47° |
| 2026-05-07 00:25 | 35.27450 | -116.17770 | 23007 ft | 299 kts | 46° |
| 2026-05-07 00:25 | 35.28829 | -116.15877 | 22499 ft | 297 kts | 46° |
| 2026-05-07 00:25 | 35.30196 | -116.14001 | 22006 ft | 295 kts | 46° |
| 2026-05-07 00:25 | 35.31559 | -116.12132 | 21536 ft | 293 kts | 46° |
| 2026-05-07 00:26 | 35.32912 | -116.10276 | 21050 ft | 291 kts | 46° |
| 2026-05-07 00:26 | 35.34260 | -116.08426 | 20576 ft | 290 kts | 46° |
| 2026-05-07 00:26 | 35.35600 | -116.06585 | 20105 ft | 288 kts | 46° |
| 2026-05-07 00:26 | 35.36936 | -116.04749 | 19652 ft | 289 kts | 47° |
| 2026-05-07 00:27 | 35.38272 | -116.02915 | 19328 ft | 288 kts | 46° |
| 2026-05-07 00:27 | 35.39598 | -116.01092 | 19107 ft | 284 kts | 47° |
| 2026-05-07 00:27 | 35.40900 | -115.99297 | 19044 ft | 287 kts | 47° |
| 2026-05-07 00:27 | 35.42218 | -115.97479 | 18953 ft | 281 kts | 46° |
| 2026-05-07 00:28 | 35.43513 | -115.95694 | 18593 ft | 280 kts | 47° |
| 2026-05-07 00:28 | 35.44804 | -115.93914 | 18114 ft | 280 kts | 47° |
| 2026-05-07 00:28 | 35.46096 | -115.92131 | 17633 ft | 278 kts | 47° |
| 2026-05-07 00:28 | 35.47381 | -115.90357 | 17165 ft | 276 kts | 47° |
| 2026-05-07 00:29 | 35.48652 | -115.88602 | 16726 ft | 275 kts | 47° |
| 2026-05-07 00:29 | 35.49920 | -115.86850 | 16276 ft | 273 kts | 47° |
| 2026-05-07 00:30 | 35.53671 | -115.81663 | 14983 ft | 269 kts | 47° |
| 2026-05-07 00:30 | 35.54908 | -115.79950 | 14566 ft | 267 kts | 47° |
| 2026-05-07 00:30 | 35.56138 | -115.78245 | 14149 ft | 266 kts | 48° |
| 2026-05-07 00:30 | 35.57363 | -115.76547 | 13728 ft | 265 kts | 48° |
| 2026-05-07 00:31 | 35.58584 | -115.74855 | 13266 ft | 264 kts | 48° |
| 2026-05-07 00:31 | 35.59808 | -115.73172 | 13074 ft | 266 kts | 47° |
| 2026-05-07 00:31 | 35.61060 | -115.71483 | 13047 ft | 267 kts | 47° |
| 2026-05-07 00:31 | 35.62307 | -115.69804 | 13034 ft | 266 kts | 47° |
| 2026-05-07 00:32 | 35.63536 | -115.68148 | 13015 ft | 265 kts | 47° |
| 2026-05-07 00:32 | 35.64791 | -115.66456 | 13028 ft | 265 kts | 47° |
| 2026-05-07 00:32 | 35.66017 | -115.64800 | 13019 ft | 265 kts | 47° |
| 2026-05-07 00:32 | 35.67249 | -115.63136 | 12954 ft | 262 kts | 46° |
| 2026-05-07 00:33 | 35.68465 | -115.61491 | 12757 ft | 259 kts | 46° |
| 2026-05-07 00:33 | 35.69683 | -115.59843 | 12421 ft | 260 kts | 46° |
| 2026-05-07 00:33 | 35.70901 | -115.58193 | 12114 ft | 260 kts | 46° |
| 2026-05-07 00:33 | 35.72125 | -115.56535 | 12080 ft | 264 kts | 46° |
| 2026-05-07 00:34 | 35.73486 | -115.55013 | 12024 ft | 263 kts | 31° |
| 2026-05-07 00:34 | 35.75064 | -115.53908 | 12034 ft | 259 kts | 28° |
| 2026-05-07 00:34 | 35.76639 | -115.52840 | 12011 ft | 258 kts | 29° |
| 2026-05-07 00:34 | 35.78216 | -115.51764 | 11837 ft | 257 kts | 28° |
| 2026-05-07 00:35 | 35.79753 | -115.50705 | 11533 ft | 257 kts | 29° |
| 2026-05-07 00:35 | 35.81317 | -115.49619 | 11189 ft | 258 kts | 28° |
| 2026-05-07 00:35 | 35.82870 | -115.48537 | 11077 ft | 251 kts | 29° |
| 2026-05-07 00:35 | 35.84365 | -115.47491 | 11019 ft | 242 kts | 28° |
| 2026-05-07 00:36 | 35.85814 | -115.46476 | 11032 ft | 239 kts | 28° |
| 2026-05-07 00:36 | 35.87262 | -115.45460 | 11036 ft | 239 kts | 28° |
| 2026-05-07 00:36 | 35.88709 | -115.44445 | 11038 ft | 239 kts | 28° |
| 2026-05-07 00:36 | 35.90154 | -115.43430 | 11044 ft | 239 kts | 28° |
| 2026-05-07 00:37 | 35.91598 | -115.42418 | 11041 ft | 239 kts | 28° |
| 2026-05-07 00:37 | 35.93047 | -115.41407 | 10978 ft | 239 kts | 28° |
| 2026-05-07 00:37 | 35.94487 | -115.40403 | 10801 ft | 237 kts | 28° |
| 2026-05-07 00:37 | 35.95925 | -115.39400 | 10505 ft | 239 kts | 28° |
| 2026-05-07 00:38 | 35.97377 | -115.38387 | 10198 ft | 240 kts | 28° |
| 2026-05-07 00:38 | 35.98832 | -115.37371 | 9935 ft | 240 kts | 28° |
| 2026-05-07 00:38 | 36.00275 | -115.36324 | 9639 ft | 241 kts | 36° |
| 2026-05-07 00:38 | 36.01293 | -115.34707 | 9283 ft | 244 kts | 70° |
| 2026-05-07 00:39 | 36.01529 | -115.32637 | 9094 ft | 245 kts | 88° |
| 2026-05-07 00:39 | 36.01435 | -115.30502 | 9064 ft | 252 kts | 90° |
| 2026-05-07 00:39 | 36.01292 | -115.28342 | 9011 ft | 252 kts | 91° |
| 2026-05-07 00:39 | 36.01148 | -115.26203 | 9022 ft | 247 kts | 91° |
| 2026-05-07 00:40 | 36.01012 | -115.24121 | 9017 ft | 245 kts | 90° |
| 2026-05-07 00:40 | 36.00882 | -115.22014 | 9030 ft | 248 kts | 90° |
| 2026-05-07 00:40 | 36.00756 | -115.19886 | 9029 ft | 249 kts | 90° |
| 2026-05-07 00:40 | 36.00631 | -115.17744 | 9034 ft | 250 kts | 90° |
| 2026-05-07 00:41 | 36.00507 | -115.15603 | 9036 ft | 251 kts | 90° |
| 2026-05-07 00:41 | 36.00383 | -115.13451 | 9027 ft | 251 kts | 90° |
| 2026-05-07 00:41 | 36.00259 | -115.11297 | 9026 ft | 251 kts | 90° |
| 2026-05-07 00:41 | 36.00135 | -115.09152 | 9025 ft | 250 kts | 90° |
| 2026-05-07 00:42 | 36.00053 | -115.07738 | 9026 ft | 250 kts | 90° |
| 2026-05-07 00:42 | 35.99933 | -115.05607 | 8996 ft | 246 kts | 88° |
| 2026-05-07 00:42 | 35.99900 | -115.03505 | 8819 ft | 243 kts | 86° |
| 2026-05-07 00:42 | 35.99900 | -115.01419 | 8525 ft | 244 kts | 85° |
| 2026-05-07 00:43 | 35.99965 | -114.99361 | 8389 ft | 235 kts | 83° |
| 2026-05-07 00:43 | 36.00066 | -114.97352 | 7993 ft | 234 kts | 82° |
| 2026-05-07 00:43 | 36.00173 | -114.95373 | 7993 ft | 230 kts | 82° |
| 2026-05-07 00:43 | 36.00280 | -114.93380 | 7991 ft | 235 kts | 83° |
| 2026-05-07 00:44 | 36.00382 | -114.91353 | 7996 ft | 238 kts | 83° |
| 2026-05-07 00:44 | 36.00486 | -114.89310 | 7981 ft | 236 kts | 83° |
| 2026-05-07 00:44 | 36.00578 | -114.87279 | 7759 ft | 236 kts | 84° |
| 2026-05-07 00:44 | 36.00653 | -114.85270 | 7413 ft | 234 kts | 84° |
| 2026-05-07 00:45 | 36.00707 | -114.83240 | 7003 ft | 236 kts | 86° |
| 2026-05-07 00:45 | 36.00735 | -114.81216 | 6667 ft | 235 kts | 86° |
| 2026-05-07 00:45 | 36.00741 | -114.79200 | 6333 ft | 235 kts | 88° |
| 2026-05-07 00:45 | 36.00726 | -114.77186 | 5985 ft | 234 kts | 89° |
| 2026-05-07 00:46 | 36.00688 | -114.75178 | 5634 ft | 234 kts | 90° |
| 2026-05-07 00:46 | 36.00595 | -114.73183 | 5285 ft | 232 kts | 88° |
| 2026-05-07 00:46 | 36.01044 | -114.71354 | 4839 ft | 229 kts | 48° |
| 2026-05-07 00:46 | 36.02349 | -114.70324 | 4421 ft | 226 kts | 11° |
| 2026-05-07 00:47 | 36.03908 | -114.70294 | 4025 ft | 225 kts | 345° |
| 2026-05-07 00:47 | 36.05278 | -114.71170 | 3796 ft | 225 kts | 315° |
| 2026-05-07 00:47 | 36.06140 | -114.72795 | 3810 ft | 230 kts | 287° |
| 2026-05-07 00:47 | 36.06394 | -114.74724 | 3796 ft | 227 kts | 276° |
| 2026-05-07 00:48 | 36.06533 | -114.76653 | 3789 ft | 224 kts | 275° |
| 2026-05-07 00:48 | 36.06666 | -114.78576 | 3780 ft | 225 kts | 275° |
| 2026-05-07 00:48 | 36.06802 | -114.80507 | 3772 ft | 226 kts | 275° |
| 2026-05-07 00:48 | 36.06940 | -114.82443 | 3772 ft | 225 kts | 275° |
| 2026-05-07 00:49 | 36.07075 | -114.84305 | 3743 ft | 214 kts | 276° |
| 2026-05-07 00:49 | 36.07205 | -114.86079 | 3748 ft | 203 kts | 276° |
| 2026-05-07 00:49 | 36.07333 | -114.87822 | 3770 ft | 203 kts | 276° |
| 2026-05-07 00:49 | 36.07461 | -114.89560 | 3761 ft | 203 kts | 275° |
| 2026-05-07 00:50 | 36.07588 | -114.91292 | 3766 ft | 201 kts | 276° |
| 2026-05-07 00:50 | 36.07669 | -114.93009 | 3765 ft | 200 kts | 271° |
| 2026-05-07 00:50 | 36.07671 | -114.94698 | 3768 ft | 190 kts | 270° |
| 2026-05-07 00:50 | 36.07664 | -114.96283 | 3753 ft | 179 kts | 270° |
| 2026-05-07 00:51 | 36.07660 | -114.97801 | 3758 ft | 174 kts | 270° |
| 2026-05-07 00:51 | 36.07657 | -114.99287 | 3537 ft | 171 kts | 270° |
| 2026-05-07 00:51 | 36.07655 | -115.00707 | 3360 ft | 154 kts | 270° |
| 2026-05-07 00:51 | 36.07653 | -115.02014 | 2898 ft | 157 kts | 270° |
| 2026-05-07 00:52 | 36.07651 | -115.03363 | 2680 ft | 151 kts | 271° |
| 2026-05-07 00:52 | 36.07649 | -115.04689 | 2757 ft | 157 kts | 270° |
| 2026-05-07 00:52 | 36.07640 | -115.06051 | 2823 ft | 162 kts | 270° |
| 2026-05-07 00:52 | 36.07642 | -115.07425 | 2667 ft | 158 kts | 271° |
| 2026-05-07 00:53 | 36.07654 | -115.08768 | 2459 ft | 154 kts | 270° |
| 2026-05-07 00:53 | 36.07657 | -115.10075 | 2387 ft | 154 kts | 269° |
| 2026-05-07 00:53 | 36.07643 | -115.11384 | 2271 ft | 154 kts | 268° |
| 2026-05-07 00:53 | 36.07640 | -115.12719 | 2159 ft | 156 kts | 270° |
| 2026-05-07 00:54 | 36.07643 | -115.14057 | 2125 ft | 155 kts | 270° |
| 2026-05-07 00:54 | 36.07643 | -115.15327 | 2123 ft | 135 kts | 270° |
| 2026-05-07 00:54 | 36.07638 | -115.16203 | 2122 ft | 48 kts | 270° |
| 2026-05-07 00:54 | 36.07650 | -115.16434 | 2120 ft | 23 kts | 263° |
| 2026-05-07 00:55 | 36.07641 | -115.16627 | 2124 ft | 22 kts | 268° |
| 2026-05-07 00:55 | 36.07681 | -115.16784 | 2123 ft | 18 kts | 339° |
| 2026-05-07 00:55 | 36.07791 | -115.16738 | 2127 ft | 17 kts | 25° |
| 2026-05-07 00:55 | 36.07815 | -115.16725 | 2127 ft | 7 kts | 24° |
| 2026-05-07 00:56 | 36.07854 | -115.16702 | 2125 ft | 1 kts | 25° |
| 2026-05-07 00:56 | 36.07860 | -115.16699 | 2126 ft | 1 kts | 25° |
| 2026-05-07 00:56 | 36.07866 | -115.16695 | 2125 ft | 1 kts | 25° |
| 2026-05-07 00:56 | 36.07872 | -115.16692 | 2125 ft | 1 kts | 25° |
| 2026-05-07 00:57 | 36.07898 | -115.16677 | 2125 ft | 10 kts | 25° |
| 2026-05-07 00:57 | 36.07963 | -115.16640 | 2124 ft | 10 kts | 25° |
| 2026-05-07 00:57 | 36.08025 | -115.16605 | 2125 ft | 10 kts | 25° |
| 2026-05-07 00:57 | 36.08085 | -115.16570 | 2123 ft | 9 kts | 25° |
| 2026-05-07 00:58 | 36.08142 | -115.16534 | 2121 ft | 9 kts | 35° |
| 2026-05-07 00:58 | 36.08162 | -115.16464 | 2121 ft | 10 kts | 90° |
| 2026-05-07 00:58 | 36.08162 | -115.16368 | 2120 ft | 13 kts | 90° |
| 2026-05-07 00:58 | 36.08162 | -115.16249 | 2119 ft | 15 kts | 90° |
| 2026-05-07 00:59 | 36.08162 | -115.16067 | 2121 ft | 11 kts | 90° |
| 2026-05-07 00:59 | 36.08163 | -115.15978 | 2124 ft | 10 kts | 90° |
| 2026-05-07 00:59 | 36.08163 | -115.15891 | 2127 ft | 10 kts | 90° |
| 2026-05-07 01:00 | 36.08163 | -115.15803 | 2129 ft | 11 kts | 90° |
| 2026-05-07 01:00 | 36.08163 | -115.15703 | 2124 ft | 12 kts | 90° |
| 2026-05-07 01:00 | 36.08163 | -115.15626 | 2124 ft | 8 kts | 90° |
| 2026-05-07 01:00 | 36.08163 | -115.15548 | 2124 ft | 10 kts | 90° |
| 2026-05-07 01:01 | 36.08135 | -115.15483 | 2127 ft | 10 kts | 150° |
| 2026-05-07 01:01 | 36.08070 | -115.15443 | 2126 ft | 12 kts | 156° |
| 2026-05-07 01:01 | 36.07945 | -115.15371 | 2127 ft | 20 kts | 155° |
| 2026-05-07 01:01 | 36.07876 | -115.15229 | 2130 ft | 18 kts | 91° |
| 2026-05-07 01:02 | 36.07875 | -115.15099 | 2124 ft | 14 kts | 94° |
| 2026-05-07 01:02 | 36.07868 | -115.14981 | 2124 ft | 14 kts | 94° |
| 2026-05-07 01:02 | 36.07858 | -115.14825 | 2122 ft | 21 kts | 94° |
| 2026-05-07 01:02 | 36.07846 | -115.14639 | 2117 ft | 21 kts | 94° |
| 2026-05-07 01:03 | 36.07835 | -115.14459 | 2118 ft | 21 kts | 94° |
| 2026-05-07 01:03 | 36.07827 | -115.14284 | 2118 ft | 20 kts | 91° |
| 2026-05-07 01:03 | 36.07828 | -115.14136 | 2116 ft | 16 kts | 90° |
| 2026-05-07 01:03 | 36.07828 | -115.13999 | 2120 ft | 16 kts | 90° |
| 2026-05-07 01:04 | 36.07827 | -115.13868 | 2123 ft | 15 kts | 91° |
| 2026-05-07 01:04 | 36.07826 | -115.13743 | 2122 ft | 14 kts | 89° |
| 2026-05-07 01:04 | 36.07827 | -115.13623 | 2122 ft | 14 kts | 89° |
| 2026-05-07 01:04 | 36.07828 | -115.13508 | 2124 ft | 13 kts | 89° |
| 2026-05-07 01:05 | 36.07828 | -115.13399 | 2128 ft | 13 kts | 90° |
| 2026-05-07 01:05 | 36.07827 | -115.13292 | 2123 ft | 13 kts | 90° |
| 2026-05-07 01:05 | 36.07826 | -115.13178 | 2120 ft | 14 kts | 89° |
| 2026-05-07 01:05 | 36.07828 | -115.13063 | 2119 ft | 13 kts | 89° |
| 2026-05-07 01:06 | 36.07829 | -115.12953 | 2119 ft | 13 kts | 89° |
| 2026-05-07 01:06 | 36.07830 | -115.12846 | 2117 ft | 12 kts | 90° |
| 2026-05-07 01:06 | 36.07829 | -115.12738 | 2115 ft | 13 kts | 92° |
| 2026-05-07 01:06 | 36.07859 | -115.12643 | 2112 ft | 13 kts | 22° |
| 2026-05-07 01:07 | 36.07952 | -115.12637 | 2109 ft | 14 kts | 0° |
| 2026-05-07 01:07 | 36.08060 | -115.12636 | 2101 ft | 18 kts | 0° |
| 2026-05-07 01:07 | 36.08202 | -115.12635 | 2088 ft | 23 kts | 360° |
| 2026-05-07 01:07 | 36.08234 | -115.12636 | 2085 ft | 4 kts | 359° |
| 2026-05-07 01:08 | 36.08277 | -115.12636 | 2082 ft | 8 kts | 0° |
| 2026-05-07 01:08 | 36.08289 | -115.12622 | 2081 ft | 2 kts | 79° |
| 2026-05-07 01:08 | 36.08291 | -115.12600 | 2081 ft | 3 kts | 89° |
| 2026-05-07 01:08 | 36.08291 | -115.12577 | 2081 ft | 3 kts | 90° |
| 2026-05-07 01:09 | 36.08291 | -115.12555 | 2081 ft | 2 kts | 90° |
| 2026-05-07 01:09 | 36.08291 | -115.12554 | 2082 ft | 0 kts | 90° |